createdAt,value
2023-07-20T00:02:06.618Z,23.59
2023-07-20T00:04:33.736Z,23.64
2023-07-20T00:07:02.091Z,23.65
2023-07-20T00:09:29.142Z,23.57
2023-07-20T00:11:55.939Z,23.47
2023-07-20T00:14:23.109Z,23.44
2023-07-20T00:16:56.892Z,23.44
2023-07-20T00:19:25.815Z,23.26
2023-07-20T00:21:53.137Z,23.38
2023-07-20T00:24:19.996Z,23.36
2023-07-20T00:26:46.909Z,23.40
2023-07-20T00:29:14.864Z,23.31
2023-07-20T00:31:41.681Z,23.24
2023-07-20T00:34:08.466Z,23.27
2023-07-20T00:36:35.225Z,23.17
2023-07-20T00:39:04.299Z,23.17
2023-07-20T00:41:31.170Z,23.17
2023-07-20T00:43:57.900Z,23.11
2023-07-20T00:46:26.654Z,23.06
2023-07-20T00:48:54.575Z,23.08
2023-07-20T00:51:22.649Z,23.12
2023-07-20T00:53:50.136Z,22.95
2023-07-20T00:56:17.358Z,22.89
2023-07-20T00:58:45.446Z,23.01
2023-07-20T01:01:12.634Z,23.01
2023-07-20T01:03:41.474Z,22.91
2023-07-20T01:06:36.038Z,22.82
2023-07-20T01:09:26.150Z,22.85
2023-07-20T01:12:05.047Z,22.69
2023-07-20T01:14:34.323Z,22.90
2023-07-20T01:17:01.423Z,22.87
2023-07-20T01:19:30.405Z,22.63
2023-07-20T01:22:28.532Z,22.70
2023-07-20T01:25:18.694Z,22.75
2023-07-20T01:28:18.616Z,22.74
2023-07-20T01:30:55.936Z,22.68
2023-07-20T01:33:25.286Z,22.74
2023-07-20T01:35:57.681Z,22.79
2023-07-20T01:38:26.652Z,22.76
2023-07-20T01:40:54.008Z,22.62
2023-07-20T01:43:22.016Z,22.67
2023-07-20T01:45:49.680Z,22.68
2023-07-20T01:48:16.681Z,22.66
2023-07-20T01:50:44.169Z,22.52
2023-07-20T01:53:11.304Z,22.61
2023-07-20T01:55:38.320Z,22.59
2023-07-20T01:58:05.651Z,22.35
2023-07-20T02:00:32.537Z,22.38
2023-07-20T02:02:59.596Z,22.37
2023-07-20T02:05:26.836Z,22.35
2023-07-20T02:07:53.861Z,22.39
2023-07-20T02:10:21.567Z,22.39
2023-07-20T02:12:48.941Z,22.17
2023-07-20T02:15:18.106Z,22.23
2023-07-20T02:17:45.194Z,22.41
2023-07-20T02:20:13.575Z,22.44
2023-07-20T02:22:41.556Z,22.29
2023-07-20T02:25:09.153Z,22.15
2023-07-20T02:27:36.142Z,22.29
2023-07-20T02:30:04.562Z,22.13
2023-07-20T02:32:38.187Z,22.20
2023-07-20T02:35:05.805Z,22.30
2023-07-20T02:37:34.556Z,22.21
2023-07-20T02:40:02.189Z,22.08
2023-07-20T02:42:32.950Z,22.26
2023-07-20T02:44:59.974Z,22.28
2023-07-20T02:47:27.364Z,22.29
2023-07-20T02:49:54.172Z,22.23
2023-07-20T02:52:22.810Z,22.05
2023-07-20T02:54:49.964Z,22.20
2023-07-20T02:57:16.765Z,22.01
2023-07-20T02:59:43.817Z,22.13
2023-07-20T03:02:11.737Z,22.18
2023-07-20T03:04:39.068Z,22.12
2023-07-20T03:07:06.581Z,21.93
2023-07-20T03:09:33.962Z,22.04
2023-07-20T03:12:00.898Z,22.07
2023-07-20T03:14:27.929Z,22.02
2023-07-20T03:16:56.670Z,21.89
2023-07-20T03:19:23.484Z,22.08
2023-07-20T03:21:50.918Z,22.14
2023-07-20T03:26:45.594Z,22.03
2023-07-20T03:29:12.720Z,22.11
2023-07-20T03:31:39.580Z,22.16
2023-07-20T03:34:07.274Z,22.16
2023-07-20T03:36:34.159Z,22.04
2023-07-20T03:39:01.161Z,22.09
2023-07-20T03:41:28.133Z,22.02
2023-07-20T03:43:55.558Z,22.00
2023-07-20T03:46:22.630Z,22.51
2023-07-20T03:48:49.813Z,22.37
2023-07-20T03:51:16.981Z,22.27
2023-07-20T03:53:44.223Z,22.11
2023-07-20T03:56:11.306Z,22.04
2023-07-20T03:58:38.459Z,21.97
2023-07-20T04:01:05.310Z,21.96
2023-07-20T04:03:32.236Z,21.87
2023-07-20T04:05:59.374Z,21.83
2023-07-20T04:08:26.406Z,21.89
2023-07-20T04:10:53.646Z,21.79
2023-07-20T04:13:20.514Z,21.82
2023-07-20T04:15:47.613Z,21.88
2023-07-20T04:18:14.794Z,21.88
2023-07-20T04:20:42.061Z,21.82
2023-07-20T04:23:09.133Z,21.66
2023-07-20T04:25:40.357Z,21.82
2023-07-20T04:28:11.489Z,21.90
2023-07-20T04:30:43.773Z,21.89
2023-07-20T04:33:10.908Z,21.72
2023-07-20T04:35:51.334Z,21.73
2023-07-20T04:38:22.433Z,21.64
2023-07-20T04:40:56.269Z,21.63
2023-07-20T04:43:23.267Z,21.68
2023-07-20T04:45:51.847Z,21.68
2023-07-20T04:48:19.047Z,21.68
2023-07-20T04:50:50.762Z,21.60
2023-07-20T04:53:18.242Z,21.54
2023-07-20T04:55:53.073Z,21.41
2023-07-20T04:58:22.498Z,21.61
2023-07-20T05:00:50.801Z,21.47
2023-07-20T05:03:18.913Z,21.41
2023-07-20T05:05:49.901Z,21.22
2023-07-20T05:08:17.949Z,21.18
2023-07-20T05:10:44.974Z,21.47
2023-07-20T05:13:12.179Z,21.53
2023-07-20T05:15:39.712Z,21.63
2023-07-20T05:18:11.162Z,21.61
2023-07-20T05:20:38.503Z,21.69
2023-07-20T05:23:05.697Z,21.90
2023-07-20T05:25:32.714Z,21.93
2023-07-20T05:27:59.838Z,21.90
2023-07-20T05:30:26.924Z,21.88
2023-07-20T05:32:55.712Z,21.87
2023-07-20T05:35:23.556Z,21.82
2023-07-20T05:37:51.067Z,21.69
2023-07-20T05:40:20.396Z,21.62
2023-07-20T05:42:49.920Z,21.36
2023-07-20T05:45:16.963Z,21.52
2023-07-20T05:47:43.970Z,21.67
2023-07-20T05:50:11.553Z,21.86
2023-07-20T05:52:39.863Z,21.90
2023-07-20T05:55:07.334Z,22.04
2023-07-20T05:57:34.688Z,21.97
2023-07-20T06:00:01.722Z,22.09
2023-07-20T06:02:40.997Z,22.05
2023-07-20T06:05:11.919Z,22.00
2023-07-20T06:07:39.704Z,21.93
2023-07-20T06:10:07.546Z,22.04
2023-07-20T06:12:34.640Z,22.24
2023-07-20T06:15:06.050Z,22.64
2023-07-20T06:17:34.856Z,22.82
2023-07-20T06:20:02.117Z,22.77
2023-07-20T06:22:31.336Z,22.37
2023-07-20T06:24:58.155Z,22.54
2023-07-20T06:27:25.058Z,22.68
2023-07-20T06:29:51.862Z,22.72
2023-07-20T06:32:18.594Z,22.73
2023-07-20T06:34:45.423Z,22.86
2023-07-20T06:37:12.404Z,23.02
2023-07-20T06:42:09.766Z,23.28
2023-07-20T06:44:41.778Z,23.43
2023-07-20T06:47:08.743Z,23.47
2023-07-20T06:49:35.659Z,23.46
2023-07-20T06:52:02.598Z,23.49
2023-07-20T06:54:35.230Z,23.56
2023-07-20T06:57:17.585Z,23.56
2023-07-20T07:02:14.957Z,23.59
2023-07-20T07:04:43.375Z,23.65
2023-07-20T07:07:11.109Z,23.71
2023-07-20T07:09:38.207Z,23.61
2023-07-20T07:12:05.796Z,23.78
2023-07-20T07:14:33.218Z,24.10
2023-07-20T07:17:05.159Z,24.05
2023-07-20T07:19:32.506Z,24.09
2023-07-20T07:22:00.860Z,24.06
2023-07-20T07:24:29.534Z,23.99
2023-07-20T07:26:57.043Z,24.23
2023-07-20T07:29:24.163Z,24.45
2023-07-20T07:31:51.030Z,24.43
2023-07-20T07:34:17.863Z,24.29
2023-07-20T07:36:45.623Z,23.84
2023-07-20T07:41:42.111Z,23.54
2023-07-20T07:44:08.895Z,23.40
2023-07-20T07:46:35.901Z,23.43
2023-07-20T07:49:02.772Z,23.44
2023-07-20T07:51:29.637Z,24.05
2023-07-20T07:53:56.588Z,24.30
2023-07-20T07:56:24.865Z,24.52
2023-07-20T07:58:55.060Z,24.24
2023-07-20T08:01:22.130Z,24.01
2023-07-20T08:03:49.381Z,24.02
2023-07-20T08:06:16.729Z,23.81
2023-07-20T08:08:43.932Z,23.51
2023-07-20T08:11:10.778Z,23.72
2023-07-20T08:13:37.931Z,24.18
2023-07-20T08:16:05.051Z,24.51
2023-07-20T08:18:32.418Z,24.65
2023-07-20T08:20:59.742Z,24.86
2023-07-20T08:23:28.604Z,24.97
2023-07-20T08:25:55.832Z,25.11
2023-07-20T08:28:22.987Z,25.02
2023-07-20T08:30:50.906Z,24.72
2023-07-20T08:33:20.499Z,24.92
2023-07-20T08:35:48.459Z,24.79
2023-07-20T08:38:15.767Z,24.38
2023-07-20T08:40:45.640Z,24.33
2023-07-20T08:43:13.839Z,24.24
2023-07-20T08:45:42.340Z,24.55
2023-07-20T08:48:10.133Z,24.88
2023-07-20T08:50:40.180Z,25.05
2023-07-20T08:53:08.392Z,25.11
2023-07-20T08:55:37.114Z,25.40
2023-07-20T08:58:05.522Z,25.46
2023-07-20T09:00:33.208Z,25.63
2023-07-20T09:03:04.212Z,25.75
2023-07-20T09:08:01.433Z,25.77
2023-07-20T09:10:28.743Z,25.46
2023-07-20T09:12:56.609Z,25.20
2023-07-20T09:15:24.441Z,25.03
2023-07-20T09:17:52.437Z,24.84
2023-07-20T09:20:22.880Z,24.78
2023-07-20T09:22:53.863Z,24.82
2023-07-20T09:25:26.628Z,24.93
2023-07-20T09:27:57.000Z,24.87
2023-07-20T09:30:31.744Z,25.02
2023-07-20T09:32:59.886Z,25.08
2023-07-20T09:35:33.090Z,25.30
2023-07-20T09:50:51.857Z,25.95
2023-07-20T09:53:20.147Z,26.19
2023-07-20T09:55:48.778Z,26.14
2023-07-20T09:58:17.194Z,26.20
2023-07-20T10:03:25.751Z,25.71
2023-07-20T10:06:00.481Z,25.59
2023-07-20T10:11:03.176Z,25.10
2023-07-20T10:13:31.299Z,25.13
2023-07-20T10:16:06.646Z,24.83
2023-07-20T10:19:03.147Z,25.11
2023-07-20T10:24:03.243Z,25.57
2023-07-20T10:26:30.545Z,25.65
2023-07-20T10:28:58.034Z,25.34
2023-07-20T10:31:30.125Z,25.48
2023-07-20T10:34:03.228Z,25.71
2023-07-20T10:36:32.173Z,25.71
2023-07-20T10:38:59.948Z,25.39
2023-07-20T10:41:37.271Z,25.59
2023-07-20T10:44:14.486Z,25.70
2023-07-20T10:46:41.415Z,25.72
2023-07-20T10:49:10.395Z,25.64
2023-07-20T10:51:42.351Z,25.74
2023-07-20T10:54:29.659Z,25.75
2023-07-20T10:56:57.945Z,25.92
2023-07-20T10:59:24.778Z,26.09
2023-07-20T11:02:02.665Z,26.28
2023-07-20T11:04:43.302Z,26.44
2023-07-20T11:07:10.769Z,26.42
2023-07-20T11:09:39.447Z,26.24
2023-07-20T11:12:19.377Z,26.31
2023-07-20T11:15:00.140Z,26.28
2023-07-20T11:17:31.840Z,26.30
2023-07-20T11:22:34.751Z,26.47
2023-07-20T11:25:01.781Z,26.13
2023-07-20T11:27:31.322Z,26.18
2023-07-20T11:29:58.523Z,25.82
2023-07-20T11:32:25.881Z,25.84
2023-07-20T11:34:53.147Z,25.73
2023-07-20T11:37:20.096Z,25.86
2023-07-20T11:39:47.878Z,25.98
2023-07-20T11:43:20.059Z,26.23
2023-07-20T11:45:06.524Z,26.41
2023-07-20T11:47:34.507Z,26.41
2023-07-20T11:50:05.274Z,26.49
2023-07-20T11:52:34.148Z,26.46
2023-07-20T11:55:01.501Z,26.39
2023-07-20T11:57:31.860Z,26.15
2023-07-20T12:00:03.011Z,26.22
2023-07-20T12:02:40.424Z,26.22
2023-07-20T12:05:09.450Z,26.42
2023-07-20T12:07:38.385Z,26.52
2023-07-20T12:10:11.589Z,26.59
2023-07-20T12:12:40.198Z,26.63
2023-07-20T12:15:23.937Z,26.41
2023-07-20T12:17:54.320Z,26.36
2023-07-20T12:20:32.121Z,26.32
2023-07-20T12:23:05.996Z,26.32
2023-07-20T12:25:43.682Z,26.32
2023-07-20T12:28:15.739Z,26.36
2023-07-20T12:30:45.577Z,26.38
2023-07-20T12:33:16.920Z,26.32
2023-07-20T12:35:45.083Z,26.53
2023-07-20T12:38:12.294Z,26.53
2023-07-20T12:40:39.117Z,26.69
2023-07-20T12:43:06.180Z,26.85
2023-07-20T12:45:33.604Z,26.84
2023-07-20T12:48:00.685Z,26.60
2023-07-20T12:50:27.893Z,26.54
2023-07-20T12:52:55.117Z,26.42
2023-07-20T12:55:22.016Z,26.39
2023-07-20T12:57:49.089Z,26.34
2023-07-20T13:00:17.514Z,26.53
2023-07-20T13:02:44.730Z,26.62
2023-07-20T13:05:11.803Z,26.55
2023-07-20T13:10:11.541Z,26.45
2023-07-20T13:12:39.469Z,26.60
2023-07-20T13:15:08.058Z,26.76
2023-07-20T13:17:36.401Z,26.88
2023-07-20T13:20:08.401Z,26.74
2023-07-20T13:22:36.173Z,26.69
2023-07-20T13:25:03.692Z,26.79
2023-07-20T13:27:33.757Z,27.13
2023-07-20T13:30:10.377Z,27.29
2023-07-20T13:32:37.646Z,27.26
2023-07-20T13:35:05.790Z,27.13
2023-07-20T13:37:34.808Z,27.18
2023-07-20T13:40:02.030Z,27.23
2023-07-20T13:42:34.031Z,27.32
2023-07-20T13:45:02.106Z,27.40
2023-07-20T13:47:34.294Z,27.39
2023-07-20T13:50:04.825Z,27.45
2023-07-20T13:55:06.084Z,27.64
2023-07-20T13:57:35.276Z,27.86
2023-07-20T14:00:05.322Z,28.13
2023-07-20T14:07:41.069Z,28.62
2023-07-20T14:12:38.118Z,28.45
2023-07-20T14:15:05.948Z,28.40
2023-07-20T14:17:33.224Z,28.34
2023-07-20T14:20:00.323Z,28.02
2023-07-20T14:22:27.485Z,27.89
2023-07-20T14:24:54.981Z,27.66
2023-07-20T14:27:22.335Z,27.56
2023-07-20T14:29:49.382Z,27.50
2023-07-20T14:32:16.424Z,27.57
2023-07-20T14:34:44.384Z,28.01
2023-07-20T14:37:14.483Z,28.19
2023-07-20T14:39:41.665Z,28.00
2023-07-20T14:42:08.829Z,27.74
2023-07-20T14:44:35.720Z,27.64
2023-07-20T14:47:14.251Z,27.60
2023-07-20T14:49:42.834Z,27.50
2023-07-20T14:54:39.933Z,27.47
2023-07-20T14:57:14.786Z,27.59
2023-07-20T14:59:45.278Z,27.70
2023-07-20T15:02:12.539Z,28.41
2023-07-20T15:04:47.355Z,28.61
2023-07-20T15:07:14.176Z,29.42
2023-07-20T15:09:41.006Z,30.57
2023-07-20T15:12:08.786Z,32.14
2023-07-20T15:14:36.148Z,33.90
2023-07-20T15:17:03.144Z,35.02
2023-07-20T15:19:30.036Z,36.17
2023-07-20T15:21:57.354Z,36.61
2023-07-20T15:24:24.285Z,37.57
2023-07-20T15:26:51.207Z,38.82
2023-07-20T15:34:19.289Z,40.13
2023-07-20T15:36:46.569Z,40.45
2023-07-20T15:39:13.438Z,39.74
2023-07-20T15:41:40.273Z,39.84
2023-07-20T15:44:07.242Z,39.60
2023-07-20T15:46:40.450Z,39.52
2023-07-20T15:49:08.294Z,39.19
2023-07-20T15:51:41.085Z,37.50
2023-07-20T15:54:12.760Z,35.69
2023-07-20T15:56:41.017Z,34.30
2023-07-20T15:59:12.116Z,33.35
2023-07-20T16:01:40.207Z,32.87
2023-07-20T16:04:07.998Z,32.14
2023-07-20T16:06:36.721Z,32.08
2023-07-20T16:09:07.433Z,31.81
2023-07-20T16:11:37.678Z,31.42
2023-07-20T16:14:06.919Z,30.94
2023-07-20T16:16:36.000Z,30.64
2023-07-20T16:19:03.807Z,30.54
2023-07-20T16:21:33.118Z,30.43
2023-07-20T16:24:00.616Z,30.35
2023-07-20T16:26:27.886Z,30.40
2023-07-20T16:29:23.265Z,30.25
2023-07-20T16:32:10.548Z,30.07
2023-07-20T16:34:28.656Z,30.09
2023-07-20T16:36:57.751Z,30.12
2023-07-20T16:44:24.747Z,29.82
2023-07-20T16:49:21.515Z,29.79
2023-07-20T16:51:48.511Z,29.58
2023-07-20T16:54:17.955Z,29.31
2023-07-20T16:56:45.400Z,29.22
2023-07-20T16:59:12.425Z,29.14
2023-07-20T17:01:39.528Z,29.15
2023-07-20T17:04:06.631Z,29.22
2023-07-20T17:06:33.717Z,29.01
2023-07-20T17:09:02.264Z,29.03
2023-07-20T17:11:29.307Z,29.05
2023-07-20T17:13:56.329Z,29.08
2023-07-20T17:16:23.283Z,29.01
2023-07-20T17:18:50.208Z,29.13
2023-07-20T17:21:17.255Z,29.01
2023-07-20T17:28:46.960Z,28.53
2023-07-20T17:31:14.167Z,28.50
2023-07-20T17:33:41.190Z,28.44
2023-07-20T17:38:42.996Z,28.23
2023-07-20T17:41:12.264Z,28.31
2023-07-20T17:43:40.959Z,28.35
2023-07-20T17:48:37.848Z,28.28
2023-07-20T17:51:04.979Z,28.24
2023-07-20T17:53:31.903Z,28.29
2023-07-20T17:55:58.892Z,28.17
2023-07-20T17:58:25.831Z,27.91
2023-07-20T18:00:53.897Z,27.88
2023-07-20T18:03:20.922Z,27.82
2023-07-20T18:05:47.784Z,27.82
2023-07-20T18:08:14.750Z,27.92
2023-07-20T18:10:41.662Z,27.88
2023-07-20T18:13:08.420Z,27.86
2023-07-20T18:15:35.591Z,27.77
2023-07-20T18:18:02.609Z,27.57
2023-07-20T18:20:29.489Z,27.70
2023-07-20T18:22:56.241Z,27.53
2023-07-20T18:25:23.313Z,27.62
2023-07-20T18:27:50.210Z,27.54
2023-07-20T18:30:20.021Z,27.37
2023-07-20T18:32:47.594Z,27.28
2023-07-20T18:35:14.479Z,27.38
2023-07-20T18:37:41.228Z,27.52
2023-07-20T18:40:08.690Z,27.34
2023-07-20T18:42:35.967Z,27.44
2023-07-20T18:45:03.052Z,27.27
2023-07-20T18:47:32.649Z,27.26
2023-07-20T18:49:59.712Z,27.16
2023-07-20T18:52:26.507Z,26.96
2023-07-20T18:54:53.444Z,26.99
2023-07-20T18:57:21.784Z,26.98
2023-07-20T18:59:50.607Z,26.88
2023-07-20T19:02:17.435Z,26.86
2023-07-20T19:04:44.185Z,26.93
2023-07-20T19:07:11.028Z,26.62
2023-07-20T19:09:37.791Z,26.77
2023-07-20T19:12:04.883Z,26.72
2023-07-20T19:14:32.046Z,26.78
2023-07-20T19:16:59.140Z,26.66
2023-07-20T19:19:26.398Z,26.58
2023-07-20T19:21:53.244Z,26.70
2023-07-20T19:24:20.245Z,26.67
2023-07-20T19:26:47.253Z,26.75
2023-07-20T19:29:14.335Z,26.84
2023-07-20T19:31:42.226Z,26.76
2023-07-20T19:34:09.243Z,26.78
2023-07-20T19:36:37.100Z,26.65
2023-07-20T19:39:04.939Z,26.53
2023-07-20T19:41:32.010Z,26.66
2023-07-20T19:43:59.284Z,26.58
2023-07-20T19:46:26.832Z,26.55
2023-07-20T19:48:54.120Z,26.60
2023-07-20T19:51:20.995Z,26.50
2023-07-20T19:56:18.738Z,26.51
2023-07-20T19:58:45.788Z,26.61
2023-07-20T20:03:42.927Z,26.67
2023-07-20T20:06:13.157Z,26.48
2023-07-20T20:08:39.946Z,26.51
2023-07-20T20:13:36.578Z,26.55
2023-07-20T20:16:05.087Z,26.44
2023-07-20T20:18:33.631Z,26.49
2023-07-20T20:21:01.063Z,26.61
2023-07-20T20:23:28.007Z,26.63
2023-07-20T20:25:55.306Z,26.62
2023-07-20T20:28:22.698Z,26.58
2023-07-20T20:30:53.066Z,26.56
2023-07-20T20:33:25.369Z,26.53
2023-07-20T20:35:53.504Z,26.49
2023-07-20T20:38:23.695Z,26.53
2023-07-20T20:40:54.546Z,26.47
2023-07-20T20:43:22.601Z,26.42
2023-07-20T20:45:50.605Z,26.47
2023-07-20T20:48:18.019Z,26.52
2023-07-20T20:50:45.189Z,26.47
2023-07-20T20:53:16.256Z,26.41
2023-07-20T20:55:43.053Z,26.43
2023-07-20T20:58:10.170Z,26.46
2023-07-20T21:00:37.317Z,26.50
2023-07-20T21:03:04.194Z,26.44
2023-07-20T21:05:38.692Z,26.21
2023-07-20T21:08:06.032Z,26.31
2023-07-20T21:10:34.104Z,26.28
2023-07-20T21:13:04.942Z,26.24
2023-07-20T21:15:33.283Z,26.31
2023-07-20T21:18:00.243Z,26.36
2023-07-20T21:20:27.149Z,26.14
2023-07-20T21:22:54.218Z,26.01
2023-07-20T21:25:21.054Z,25.97
2023-07-20T21:27:47.791Z,25.77
2023-07-20T21:30:14.749Z,25.57
2023-07-20T21:32:41.875Z,25.82
2023-07-20T21:35:09.232Z,25.91
2023-07-20T21:37:36.084Z,25.97
2023-07-20T21:40:04.462Z,26.00
2023-07-20T21:42:32.000Z,25.85
2023-07-20T21:44:58.814Z,25.82
2023-07-20T21:47:26.278Z,25.75
2023-07-20T21:49:53.132Z,25.98
2023-07-20T21:52:19.909Z,26.07
2023-07-20T21:54:46.957Z,25.95
2023-07-20T21:57:14.040Z,26.00
2023-07-20T21:59:41.602Z,26.07
2023-07-20T22:02:08.409Z,25.88
2023-07-20T22:04:35.562Z,25.69
2023-07-20T22:07:02.531Z,25.67
2023-07-20T22:09:29.894Z,25.71
2023-07-20T22:11:56.659Z,25.65
2023-07-20T22:14:23.445Z,25.60
2023-07-20T22:16:50.301Z,25.57
2023-07-20T22:19:20.037Z,25.78
2023-07-20T22:21:47.989Z,25.61
2023-07-20T22:24:15.019Z,25.59
2023-07-20T22:26:41.957Z,25.51
2023-07-20T22:29:08.849Z,25.21
2023-07-20T22:31:35.903Z,25.26
2023-07-20T22:34:02.732Z,25.08
2023-07-20T22:36:29.469Z,25.14
2023-07-20T22:38:56.416Z,25.13
2023-07-20T22:41:23.294Z,25.30
2023-07-20T22:43:50.097Z,25.21
2023-07-20T22:46:18.484Z,25.23
2023-07-20T22:48:45.754Z,25.43
2023-07-20T22:51:12.563Z,25.49
2023-07-20T22:53:40.157Z,25.51
2023-07-20T22:56:07.162Z,25.57
2023-07-20T22:58:34.430Z,25.43
2023-07-20T23:01:01.643Z,25.42
2023-07-20T23:03:28.797Z,25.62
2023-07-20T23:05:55.903Z,25.34
2023-07-20T23:08:23.268Z,25.32
2023-07-20T23:10:51.563Z,25.13
2023-07-20T23:13:18.496Z,25.19
2023-07-20T23:15:45.420Z,25.36
2023-07-20T23:18:12.480Z,25.49
2023-07-20T23:20:39.328Z,25.40
2023-07-20T23:23:06.557Z,25.44
2023-07-20T23:25:33.581Z,25.37
2023-07-20T23:28:00.309Z,25.43
2023-07-20T23:30:30.508Z,25.19
2023-07-20T23:32:57.346Z,25.08
2023-07-20T23:35:24.317Z,25.37
2023-07-20T23:37:51.577Z,25.28
2023-07-20T23:40:19.583Z,25.13
2023-07-20T23:42:47.971Z,24.79
2023-07-20T23:45:17.796Z,24.82
2023-07-20T23:47:44.740Z,24.79
2023-07-20T23:50:11.825Z,24.77
2023-07-20T23:52:38.923Z,24.76
2023-07-20T23:55:10.273Z,24.61
2023-07-20T23:57:38.882Z,24.52
